sensor_id;sensor_type;location;lat;lon;timestamp;pressure;altitude;pressure_sealevel;temperature;humidity
32456;BME280;18912;43.270;27.942;2023-04-28T00:02:21;98208.81;;;13.44;44.37
32456;BME280;18912;43.270;27.942;2023-04-28T00:04:46;98212.00;;;13.41;44.27
32456;BME280;18912;43.270;27.942;2023-04-28T00:07:12;98208.59;;;13.45;44.52
32456;BME280;18912;43.270;27.942;2023-04-28T00:09:37;98207.78;;;13.45;44.43
32456;BME280;18912;43.270;27.942;2023-04-28T00:12:02;98207.44;;;13.35;44.83
32456;BME280;18912;43.270;27.942;2023-04-28T00:14:28;98201.56;;;13.13;45.26
32456;BME280;18912;43.270;27.942;2023-04-28T00:16:53;98202.63;;;13.12;45.18
32456;BME280;18912;43.270;27.942;2023-04-28T00:19:21;98207.50;;;13.03;45.18
32456;BME280;18912;43.270;27.942;2023-04-28T00:21:46;98211.44;;;13.07;45.34
32456;BME280;18912;43.270;27.942;2023-04-28T00:24:12;98218.03;;;13.18;45.22
32456;BME280;18912;43.270;27.942;2023-04-28T00:26:37;98219.31;;;13.16;45.19
32456;BME280;18912;43.270;27.942;2023-04-28T00:29:02;98220.56;;;13.13;45.31
32456;BME280;18912;43.270;27.942;2023-04-28T00:31:28;98226.56;;;12.90;45.71
32456;BME280;18912;43.270;27.942;2023-04-28T00:33:53;98225.06;;;12.94;45.74
32456;BME280;18912;43.270;27.942;2023-04-28T00:36:18;98222.75;;;12.98;45.67
32456;BME280;18912;43.270;27.942;2023-04-28T00:38:44;98232.97;;;12.96;45.84
32456;BME280;18912;43.270;27.942;2023-04-28T00:41:09;98227.31;;;12.97;45.71
32456;BME280;18912;43.270;27.942;2023-04-28T00:43:47;98232.34;;;13.00;45.84
32456;BME280;18912;43.270;27.942;2023-04-28T00:46:46;98236.53;;;12.96;45.98
32456;BME280;18912;43.270;27.942;2023-04-28T00:49:04;98238.19;;;12.97;45.78
32456;BME280;18912;43.270;27.942;2023-04-28T00:51:30;98250.13;;;12.90;46.04
32456;BME280;18912;43.270;27.942;2023-04-28T00:53:57;98246.41;;;12.84;46.21
32456;BME280;18912;43.270;27.942;2023-04-28T00:56:23;98246.00;;;12.87;45.96
32456;BME280;18912;43.270;27.942;2023-04-28T00:58:51;98243.66;;;12.91;45.94
32456;BME280;18912;43.270;27.942;2023-04-28T01:01:16;98237.03;;;12.80;45.93
32456;BME280;18912;43.270;27.942;2023-04-28T01:03:42;98241.66;;;12.80;45.91
32456;BME280;18912;43.270;27.942;2023-04-28T01:06:08;98237.50;;;12.77;46.21
32456;BME280;18912;43.270;27.942;2023-04-28T01:08:34;98235.69;;;12.65;46.18
32456;BME280;18912;43.270;27.942;2023-04-28T01:11:00;98242.56;;;12.67;46.21
32456;BME280;18912;43.270;27.942;2023-04-28T01:13:26;98240.69;;;12.61;46.38
32456;BME280;18912;43.270;27.942;2023-04-28T01:15:51;98242.81;;;12.59;46.23
32456;BME280;18912;43.270;27.942;2023-04-28T01:18:17;98234.13;;;12.44;46.38
32456;BME280;18912;43.270;27.942;2023-04-28T01:20:42;98234.56;;;12.41;46.41
32456;BME280;18912;43.270;27.942;2023-04-28T01:23:11;98233.69;;;12.47;46.02
32456;BME280;18912;43.270;27.942;2023-04-28T01:25:37;98229.50;;;12.51;45.96
32456;BME280;18912;43.270;27.942;2023-04-28T01:28:02;98230.53;;;12.57;45.89
32456;BME280;18912;43.270;27.942;2023-04-28T01:30:28;98234.34;;;12.43;45.86
32456;BME280;18912;43.270;27.942;2023-04-28T01:32:53;98222.22;;;12.52;45.83
32456;BME280;18912;43.270;27.942;2023-04-28T01:35:18;98226.13;;;12.56;45.73
32456;BME280;18912;43.270;27.942;2023-04-28T01:37:43;98227.19;;;12.55;45.60
32456;BME280;18912;43.270;27.942;2023-04-28T01:40:09;98228.03;;;12.55;45.50
32456;BME280;18912;43.270;27.942;2023-04-28T01:42:34;98221.16;;;12.53;45.79
32456;BME280;18912;43.270;27.942;2023-04-28T01:45:00;98227.59;;;12.58;45.43
32456;BME280;18912;43.270;27.942;2023-04-28T01:47:26;98222.56;;;12.62;45.32
32456;BME280;18912;43.270;27.942;2023-04-28T01:49:51;98229.31;;;12.46;45.44
32456;BME280;18912;43.270;27.942;2023-04-28T01:52:16;98231.41;;;12.44;45.70
32456;BME280;18912;43.270;27.942;2023-04-28T01:54:43;98226.88;;;12.38;45.77
32456;BME280;18912;43.270;27.942;2023-04-28T01:57:09;98231.22;;;12.39;45.88
32456;BME280;18912;43.270;27.942;2023-04-28T01:59:34;98227.69;;;12.39;45.81
32456;BME280;18912;43.270;27.942;2023-04-28T02:01:59;98226.31;;;12.23;46.05
32456;BME280;18912;43.270;27.942;2023-04-28T02:04:25;98225.25;;;12.31;45.87
32456;BME280;18912;43.270;27.942;2023-04-28T02:06:50;98223.53;;;12.36;45.64
32456;BME280;18912;43.270;27.942;2023-04-28T02:09:15;98219.44;;;12.20;45.87
32456;BME280;18912;43.270;27.942;2023-04-28T02:11:40;98223.00;;;12.14;45.72
32456;BME280;18912;43.270;27.942;2023-04-28T02:14:06;98224.41;;;12.23;45.74
32456;BME280;18912;43.270;27.942;2023-04-28T02:16:31;98224.88;;;12.14;45.81
32456;BME280;18912;43.270;27.942;2023-04-28T02:18:57;98226.97;;;12.12;45.56
32456;BME280;18912;43.270;27.942;2023-04-28T02:21:22;98223.03;;;12.08;45.70
32456;BME280;18912;43.270;27.942;2023-04-28T02:23:47;98220.75;;;12.05;45.51
32456;BME280;18912;43.270;27.942;2023-04-28T02:26:14;98217.03;;;11.93;45.73
32456;BME280;18912;43.270;27.942;2023-04-28T02:28:39;98218.09;;;11.92;45.81
32456;BME280;18912;43.270;27.942;2023-04-28T02:31:06;98217.03;;;11.93;45.96
32456;BME280;18912;43.270;27.942;2023-04-28T02:33:31;98222.66;;;11.98;45.66
32456;BME280;18912;43.270;27.942;2023-04-28T02:36:00;98224.97;;;11.88;45.69
32456;BME280;18912;43.270;27.942;2023-04-28T02:38:26;98225.81;;;11.88;45.60
32456;BME280;18912;43.270;27.942;2023-04-28T02:41:01;98229.53;;;11.87;45.47
32456;BME280;18912;43.270;27.942;2023-04-28T02:43:29;98233.31;;;11.80;45.52
32456;BME280;18912;43.270;27.942;2023-04-28T02:45:55;98239.16;;;11.77;45.53
32456;BME280;18912;43.270;27.942;2023-04-28T02:48:20;98231.22;;;11.82;45.59
32456;BME280;18912;43.270;27.942;2023-04-28T02:50:45;98241.25;;;11.75;45.55
32456;BME280;18912;43.270;27.942;2023-04-28T02:53:11;98237.91;;;11.73;45.69
32456;BME280;18912;43.270;27.942;2023-04-28T02:55:36;98241.03;;;11.76;45.53
32456;BME280;18912;43.270;27.942;2023-04-28T02:58:02;98238.09;;;11.78;45.44
32456;BME280;18912;43.270;27.942;2023-04-28T03:00:27;98241.69;;;11.72;45.50
32456;BME280;18912;43.270;27.942;2023-04-28T03:02:53;98245.03;;;11.74;45.23
32456;BME280;18912;43.270;27.942;2023-04-28T03:05:18;98250.81;;;11.84;44.96
32456;BME280;18912;43.270;27.942;2023-04-28T03:07:44;98254.97;;;11.80;45.00
32456;BME280;18912;43.270;27.942;2023-04-28T03:10:09;98262.91;;;11.75;45.09
32456;BME280;18912;43.270;27.942;2023-04-28T03:12:35;98257.09;;;11.71;44.89
32456;BME280;18912;43.270;27.942;2023-04-28T03:15:00;98267.91;;;11.78;44.84
32456;BME280;18912;43.270;27.942;2023-04-28T03:17:26;98271.66;;;11.70;45.00
32456;BME280;18912;43.270;27.942;2023-04-28T03:19:51;98274.38;;;11.77;44.76
32456;BME280;18912;43.270;27.942;2023-04-28T03:22:16;98277.09;;;11.77;45.08
32456;BME280;18912;43.270;27.942;2023-04-28T03:24:42;98274.53;;;11.95;44.75
32456;BME280;18912;43.270;27.942;2023-04-28T03:27:07;98277.47;;;12.00;44.58
32456;BME280;18912;43.270;27.942;2023-04-28T03:29:32;98281.63;;;11.89;44.86
32456;BME280;18912;43.270;27.942;2023-04-28T03:31:58;98298.28;;;11.93;44.59
32456;BME280;18912;43.270;27.942;2023-04-28T03:34:23;98294.53;;;12.07;44.69
32456;BME280;18912;43.270;27.942;2023-04-28T03:36:48;98298.91;;;11.95;44.56
32456;BME280;18912;43.270;27.942;2023-04-28T03:39:14;98296.38;;;12.06;44.53
32456;BME280;18912;43.270;27.942;2023-04-28T03:41:39;98292.88;;;11.99;44.55
32456;BME280;18912;43.270;27.942;2023-04-28T03:44:05;98295.06;;;12.35;44.21
32456;BME280;18912;43.270;27.942;2023-04-28T03:46:30;98300.59;;;12.60;43.48
32456;BME280;18912;43.270;27.942;2023-04-28T03:48:56;98304.56;;;12.57;43.69
32456;BME280;18912;43.270;27.942;2023-04-28T03:51:21;98311.13;;;12.81;43.38
32456;BME280;18912;43.270;27.942;2023-04-28T03:53:46;98317.81;;;12.78;43.17
32456;BME280;18912;43.270;27.942;2023-04-28T03:56:12;98319.66;;;12.84;43.13
32456;BME280;18912;43.270;27.942;2023-04-28T03:58:37;98324.19;;;13.03;42.87
32456;BME280;18912;43.270;27.942;2023-04-28T04:01:02;98322.69;;;13.07;42.72
32456;BME280;18912;43.270;27.942;2023-04-28T04:03:29;98321.97;;;13.25;42.47
32456;BME280;18912;43.270;27.942;2023-04-28T04:05:54;98332.81;;;13.25;42.79
32456;BME280;18912;43.270;27.942;2023-04-28T04:08:20;98338.78;;;13.02;42.97
32456;BME280;18912;43.270;27.942;2023-04-28T04:10:45;98336.28;;;13.39;42.19
32456;BME280;18912;43.270;27.942;2023-04-28T04:13:11;98337.00;;;13.28;42.24
32456;BME280;18912;43.270;27.942;2023-04-28T04:15:36;98342.22;;;13.54;41.77
32456;BME280;18912;43.270;27.942;2023-04-28T04:18:01;98336.81;;;13.54;42.35
32456;BME280;18912;43.270;27.942;2023-04-28T04:20:27;98335.81;;;13.97;41.46
32456;BME280;18912;43.270;27.942;2023-04-28T04:22:52;98344.09;;;14.27;41.44
32456;BME280;18912;43.270;27.942;2023-04-28T04:25:17;98342.44;;;14.44;40.92
32456;BME280;18912;43.270;27.942;2023-04-28T04:27:43;98346.59;;;14.29;40.91
32456;BME280;18912;43.270;27.942;2023-04-28T04:30:08;98342.66;;;13.51;41.29
32456;BME280;18912;43.270;27.942;2023-04-28T04:32:33;98335.66;;;14.35;40.63
32456;BME280;18912;43.270;27.942;2023-04-28T04:34:59;98347.22;;;14.85;40.01
32456;BME280;18912;43.270;27.942;2023-04-28T04:37:24;98346.44;;;14.96;39.33
32456;BME280;18912;43.270;27.942;2023-04-28T04:39:49;98344.91;;;15.00;39.63
32456;BME280;18912;43.270;27.942;2023-04-28T04:42:15;98347.56;;;14.70;39.59
32456;BME280;18912;43.270;27.942;2023-04-28T04:44:40;98342.38;;;14.87;39.32
32456;BME280;18912;43.270;27.942;2023-04-28T04:47:05;98339.69;;;15.58;38.33
32456;BME280;18912;43.270;27.942;2023-04-28T04:49:31;98332.25;;;15.65;38.37
32456;BME280;18912;43.270;27.942;2023-04-28T04:51:56;98332.91;;;15.19;38.54
32456;BME280;18912;43.270;27.942;2023-04-28T04:54:22;98335.94;;;15.70;38.09
32456;BME280;18912;43.270;27.942;2023-04-28T04:56:47;98333.00;;;15.83;37.81
32456;BME280;18912;43.270;27.942;2023-04-28T04:59:12;98340.75;;;15.57;37.64
32456;BME280;18912;43.270;27.942;2023-04-28T05:01:38;98334.03;;;15.82;37.49
32456;BME280;18912;43.270;27.942;2023-04-28T05:04:03;98330.13;;;16.36;36.50
32456;BME280;18912;43.270;27.942;2023-04-28T05:06:28;98328.38;;;16.53;36.75
32456;BME280;18912;43.270;27.942;2023-04-28T05:08:55;98332.50;;;16.67;36.07
32456;BME280;18912;43.270;27.942;2023-04-28T05:11:22;98329.78;;;16.67;36.11
32456;BME280;18912;43.270;27.942;2023-04-28T05:13:47;98336.03;;;16.79;35.88
32456;BME280;18912;43.270;27.942;2023-04-28T05:16:12;98340.75;;;16.96;35.51
32456;BME280;18912;43.270;27.942;2023-04-28T05:18:38;98334.13;;;17.48;34.35
32456;BME280;18912;43.270;27.942;2023-04-28T05:21:03;98341.47;;;17.19;35.13
32456;BME280;18912;43.270;27.942;2023-04-28T05:23:29;98344.91;;;17.26;34.85
32456;BME280;18912;43.270;27.942;2023-04-28T05:25:54;98341.03;;;17.39;34.47
32456;BME280;18912;43.270;27.942;2023-04-28T05:28:19;98340.63;;;17.58;33.72
32456;BME280;18912;43.270;27.942;2023-04-28T05:30:46;98347.25;;;17.62;33.65
32456;BME280;18912;43.270;27.942;2023-04-28T05:33:11;98348.88;;;18.30;33.46
32456;BME280;18912;43.270;27.942;2023-04-28T05:35:37;98352.63;;;18.57;33.14
32456;BME280;18912;43.270;27.942;2023-04-28T05:38:03;98351.63;;;18.85;32.75
32456;BME280;18912;43.270;27.942;2023-04-28T05:40:28;98356.88;;;18.48;32.51
32456;BME280;18912;43.270;27.942;2023-04-28T05:42:53;98354.38;;;18.46;32.00
32456;BME280;18912;43.270;27.942;2023-04-28T05:45:19;98349.72;;;19.07;32.25
32456;BME280;18912;43.270;27.942;2023-04-28T05:47:44;98352.75;;;19.32;31.88
32456;BME280;18912;43.270;27.942;2023-04-28T05:50:10;98356.34;;;19.11;31.79
32456;BME280;18912;43.270;27.942;2023-04-28T05:52:35;98357.34;;;19.48;31.43
32456;BME280;18912;43.270;27.942;2023-04-28T05:55:00;98362.41;;;19.61;31.10
32456;BME280;18912;43.270;27.942;2023-04-28T05:57:25;98358.81;;;19.34;30.67
32456;BME280;18912;43.270;27.942;2023-04-28T05:59:51;98359.78;;;19.44;31.46
32456;BME280;18912;43.270;27.942;2023-04-28T06:02:16;98351.22;;;19.94;31.10
32456;BME280;18912;43.270;27.942;2023-04-28T06:04:42;98351.25;;;19.41;31.30
32456;BME280;18912;43.270;27.942;2023-04-28T06:07:08;98353.59;;;19.32;31.66
32456;BME280;18912;43.270;27.942;2023-04-28T06:09:34;98356.81;;;19.51;31.05
32456;BME280;18912;43.270;27.942;2023-04-28T06:12:00;98353.00;;;19.52;30.97
32456;BME280;18912;43.270;27.942;2023-04-28T06:14:25;98347.47;;;20.05;30.77
32456;BME280;18912;43.270;27.942;2023-04-28T06:16:50;98357.09;;;20.44;30.75
32456;BME280;18912;43.270;27.942;2023-04-28T06:19:16;98351.53;;;20.34;30.67
32456;BME280;18912;43.270;27.942;2023-04-28T06:21:43;98357.69;;;20.15;30.19
32456;BME280;18912;43.270;27.942;2023-04-28T06:24:08;98351.41;;;20.19;29.98
32456;BME280;18912;43.270;27.942;2023-04-28T06:26:33;98361.72;;;20.39;29.97
32456;BME280;18912;43.270;27.942;2023-04-28T06:28:59;98358.66;;;19.72;29.78
32456;BME280;18912;43.270;27.942;2023-04-28T06:31:24;98362.13;;;20.58;30.25
32456;BME280;18912;43.270;27.942;2023-04-28T06:33:50;98368.31;;;20.80;30.01
32456;BME280;18912;43.270;27.942;2023-04-28T06:36:15;98360.38;;;20.88;29.75
32456;BME280;18912;43.270;27.942;2023-04-28T06:38:42;98356.28;;;20.91;29.87
32456;BME280;18912;43.270;27.942;2023-04-28T06:41:08;98357.50;;;21.10;29.54
32456;BME280;18912;43.270;27.942;2023-04-28T06:43:33;98351.97;;;21.05;29.44
32456;BME280;18912;43.270;27.942;2023-04-28T06:45:58;98352.41;;;20.82;29.62
32456;BME280;18912;43.270;27.942;2023-04-28T06:48:25;98351.44;;;21.08;28.96
32456;BME280;18912;43.270;27.942;2023-04-28T06:50:50;98358.41;;;21.25;29.20
32456;BME280;18912;43.270;27.942;2023-04-28T06:53:15;98358.69;;;21.29;28.36
32456;BME280;18912;43.270;27.942;2023-04-28T06:55:41;98362.25;;;21.34;29.21
32456;BME280;18912;43.270;27.942;2023-04-28T06:58:06;98359.31;;;21.61;28.88
32456;BME280;18912;43.270;27.942;2023-04-28T07:00:31;98354.16;;;22.10;28.53
32456;BME280;18912;43.270;27.942;2023-04-28T07:02:57;98363.53;;;21.94;28.23
32456;BME280;18912;43.270;27.942;2023-04-28T07:05:23;98374.78;;;22.22;27.82
32456;BME280;18912;43.270;27.942;2023-04-28T07:07:48;98363.72;;;21.77;27.94
32456;BME280;18912;43.270;27.942;2023-04-28T07:10:13;98364.06;;;21.96;27.47
32456;BME280;18912;43.270;27.942;2023-04-28T07:12:39;98354.84;;;21.40;27.57
32456;BME280;18912;43.270;27.942;2023-04-28T07:15:05;98364.59;;;21.98;27.94
32456;BME280;18912;43.270;27.942;2023-04-28T07:17:30;98361.03;;;22.58;27.33
32456;BME280;18912;43.270;27.942;2023-04-28T07:19:56;98359.25;;;22.97;27.10
32456;BME280;18912;43.270;27.942;2023-04-28T07:22:21;98362.81;;;23.07;27.02
32456;BME280;18912;43.270;27.942;2023-04-28T07:24:46;98354.75;;;23.26;26.72
32456;BME280;18912;43.270;27.942;2023-04-28T07:27:12;98357.97;;;23.92;26.90
32456;BME280;18912;43.270;27.942;2023-04-28T07:29:37;98373.75;;;23.86;26.84
32456;BME280;18912;43.270;27.942;2023-04-28T07:32:03;98371.72;;;23.58;26.94
32456;BME280;18912;43.270;27.942;2023-04-28T07:34:29;98367.66;;;23.41;26.24
32456;BME280;18912;43.270;27.942;2023-04-28T07:36:55;98376.19;;;23.44;25.42
32456;BME280;18912;43.270;27.942;2023-04-28T07:39:20;98378.44;;;23.42;26.19
32456;BME280;18912;43.270;27.942;2023-04-28T07:41:46;98369.69;;;23.10;25.59
32456;BME280;18912;43.270;27.942;2023-04-28T07:44:11;98371.75;;;23.48;26.23
32456;BME280;18912;43.270;27.942;2023-04-28T07:46:37;98369.88;;;23.44;26.35
32456;BME280;18912;43.270;27.942;2023-04-28T07:49:02;98363.63;;;23.08;25.26
32456;BME280;18912;43.270;27.942;2023-04-28T07:51:28;98376.66;;;23.61;25.65
32456;BME280;18912;43.270;27.942;2023-04-28T07:53:55;98372.00;;;23.95;24.65
32456;BME280;18912;43.270;27.942;2023-04-28T07:56:20;98370.91;;;24.01;25.22
32456;BME280;18912;43.270;27.942;2023-04-28T07:58:46;98363.28;;;23.83;25.91
32456;BME280;18912;43.270;27.942;2023-04-28T08:01:11;98362.19;;;24.52;25.07
32456;BME280;18912;43.270;27.942;2023-04-28T08:03:37;98368.91;;;23.63;24.89
32456;BME280;18912;43.270;27.942;2023-04-28T08:06:02;98372.78;;;23.62;25.25
32456;BME280;18912;43.270;27.942;2023-04-28T08:08:28;98373.13;;;23.94;25.95
32456;BME280;18912;43.270;27.942;2023-04-28T08:10:54;98359.03;;;23.96;25.78
32456;BME280;18912;43.270;27.942;2023-04-28T08:13:19;98364.16;;;24.18;25.42
32456;BME280;18912;43.270;27.942;2023-04-28T08:15:46;98361.91;;;24.53;24.53
32456;BME280;18912;43.270;27.942;2023-04-28T08:18:11;98368.13;;;24.64;24.77
32456;BME280;18912;43.270;27.942;2023-04-28T08:20:36;98361.38;;;23.79;24.53
32456;BME280;18912;43.270;27.942;2023-04-28T08:23:01;98349.69;;;24.59;24.98
32456;BME280;18912;43.270;27.942;2023-04-28T08:25:27;98341.03;;;25.18;24.50
32456;BME280;18912;43.270;27.942;2023-04-28T08:27:52;98336.16;;;24.58;24.54
32456;BME280;18912;43.270;27.942;2023-04-28T08:30:19;98340.81;;;25.33;25.88
32456;BME280;18912;43.270;27.942;2023-04-28T08:32:45;98333.03;;;24.93;24.66
32456;BME280;18912;43.270;27.942;2023-04-28T08:35:10;98339.97;;;25.14;24.96
32456;BME280;18912;43.270;27.942;2023-04-28T08:37:36;98339.06;;;25.61;24.04
32456;BME280;18912;43.270;27.942;2023-04-28T08:40:02;98335.38;;;25.28;23.77
32456;BME280;18912;43.270;27.942;2023-04-28T08:42:29;98337.00;;;25.71;24.11
32456;BME280;18912;43.270;27.942;2023-04-28T08:44:55;98336.06;;;26.77;23.78
32456;BME280;18912;43.270;27.942;2023-04-28T08:47:23;98347.38;;;26.49;22.43
32456;BME280;18912;43.270;27.942;2023-04-28T08:49:52;98338.59;;;26.60;22.38
32456;BME280;18912;43.270;27.942;2023-04-28T08:52:18;98336.50;;;26.52;22.50
32456;BME280;18912;43.270;27.942;2023-04-28T08:54:43;98326.81;;;26.68;22.82
32456;BME280;18912;43.270;27.942;2023-04-28T08:57:12;98345.81;;;26.43;23.43
32456;BME280;18912;43.270;27.942;2023-04-28T08:59:38;98333.44;;;26.54;21.95
32456;BME280;18912;43.270;27.942;2023-04-28T09:02:04;98334.50;;;25.51;21.84
32456;BME280;18912;43.270;27.942;2023-04-28T09:04:29;98334.44;;;25.93;22.44
32456;BME280;18912;43.270;27.942;2023-04-28T09:06:55;98326.53;;;26.38;22.16
32456;BME280;18912;43.270;27.942;2023-04-28T09:09:21;98318.19;;;25.08;22.30
32456;BME280;18912;43.270;27.942;2023-04-28T09:11:53;98324.22;;;25.75;23.02
32456;BME280;18912;43.270;27.942;2023-04-28T09:14:19;98330.78;;;25.42;23.23
32456;BME280;18912;43.270;27.942;2023-04-28T09:16:45;98324.28;;;23.95;23.11
32456;BME280;18912;43.270;27.942;2023-04-28T09:19:10;98328.19;;;24.23;23.74
32456;BME280;18912;43.270;27.942;2023-04-28T09:21:51;98326.44;;;24.32;24.69
32456;BME280;18912;43.270;27.942;2023-04-28T09:27:04;98319.88;;;24.28;24.94
32456;BME280;18912;43.270;27.942;2023-04-28T09:29:30;98314.69;;;24.21;24.34
32456;BME280;18912;43.270;27.942;2023-04-28T09:32:11;98317.63;;;24.30;24.52
32456;BME280;18912;43.270;27.942;2023-04-28T09:37:27;98314.59;;;23.05;25.23
32456;BME280;18912;43.270;27.942;2023-04-28T09:39:55;98320.38;;;24.01;25.18
32456;BME280;18912;43.270;27.942;2023-04-28T09:44:54;98318.44;;;23.09;26.18
32456;BME280;18912;43.270;27.942;2023-04-28T09:47:21;98328.06;;;23.65;25.41
32456;BME280;18912;43.270;27.942;2023-04-28T09:49:53;98326.44;;;23.98;25.41
32456;BME280;18912;43.270;27.942;2023-04-28T09:52:19;98310.22;;;24.82;25.26
32456;BME280;18912;43.270;27.942;2023-04-28T09:54:45;98315.75;;;24.82;24.10
32456;BME280;18912;43.270;27.942;2023-04-28T09:57:12;98313.25;;;25.28;23.99
32456;BME280;18912;43.270;27.942;2023-04-28T09:59:38;98301.31;;;24.04;23.88
32456;BME280;18912;43.270;27.942;2023-04-28T10:02:03;98310.03;;;24.45;24.16
32456;BME280;18912;43.270;27.942;2023-04-28T10:04:29;98291.59;;;24.36;23.54
32456;BME280;18912;43.270;27.942;2023-04-28T10:06:57;98280.41;;;24.51;24.18
32456;BME280;18912;43.270;27.942;2023-04-28T10:09:23;98290.94;;;24.20;24.01
32456;BME280;18912;43.270;27.942;2023-04-28T10:11:50;98294.69;;;23.67;25.00
32456;BME280;18912;43.270;27.942;2023-04-28T10:14:16;98299.03;;;24.92;24.86
32456;BME280;18912;43.270;27.942;2023-04-28T10:16:42;98302.88;;;25.15;25.52
32456;BME280;18912;43.270;27.942;2023-04-28T10:19:08;98311.97;;;24.73;23.86
32456;BME280;18912;43.270;27.942;2023-04-28T10:21:35;98311.38;;;23.85;23.43
32456;BME280;18912;43.270;27.942;2023-04-28T10:24:43;98302.63;;;24.41;23.70
32456;BME280;18912;43.270;27.942;2023-04-28T10:29:25;98298.72;;;23.79;24.54
32456;BME280;18912;43.270;27.942;2023-04-28T10:32:36;98298.41;;;24.20;24.74
32456;BME280;18912;43.270;27.942;2023-04-28T10:34:37;98295.16;;;23.35;24.14
32456;BME280;18912;43.270;27.942;2023-04-28T10:37:03;98279.06;;;24.20;23.78
32456;BME280;18912;43.270;27.942;2023-04-28T10:39:28;98314.25;;;23.70;25.14
32456;BME280;18912;43.270;27.942;2023-04-28T10:41:54;98292.69;;;23.34;25.38
32456;BME280;18912;43.270;27.942;2023-04-28T10:49:22;98290.53;;;23.20;26.06
32456;BME280;18912;43.270;27.942;2023-04-28T10:52:39;98301.97;;;22.89;25.76
32456;BME280;18912;43.270;27.942;2023-04-28T10:57:36;98304.81;;;23.28;24.83
32456;BME280;18912;43.270;27.942;2023-04-28T11:02:46;98286.63;;;23.21;24.84
32456;BME280;18912;43.270;27.942;2023-04-28T11:05:13;98287.69;;;22.77;25.99
32456;BME280;18912;43.270;27.942;2023-04-28T11:07:38;98275.91;;;22.36;25.41
32456;BME280;18912;43.270;27.942;2023-04-28T11:10:04;98297.25;;;22.99;25.41
32456;BME280;18912;43.270;27.942;2023-04-28T11:12:30;98303.22;;;23.65;25.42
32456;BME280;18912;43.270;27.942;2023-04-28T11:14:56;98290.75;;;23.73;25.63
32456;BME280;18912;43.270;27.942;2023-04-28T11:17:21;98299.59;;;23.31;26.49
32456;BME280;18912;43.270;27.942;2023-04-28T11:19:58;98299.88;;;23.25;25.88
32456;BME280;18912;43.270;27.942;2023-04-28T11:22:24;98312.25;;;23.27;26.45
32456;BME280;18912;43.270;27.942;2023-04-28T11:24:56;98308.78;;;23.06;26.67
32456;BME280;18912;43.270;27.942;2023-04-28T11:27:22;98304.31;;;22.32;26.43
32456;BME280;18912;43.270;27.942;2023-04-28T11:29:47;98291.84;;;22.69;26.16
32456;BME280;18912;43.270;27.942;2023-04-28T11:32:14;98298.75;;;22.72;26.42
32456;BME280;18912;43.270;27.942;2023-04-28T11:34:40;98298.22;;;22.40;25.04
32456;BME280;18912;43.270;27.942;2023-04-28T11:37:06;98300.91;;;23.39;26.89
32456;BME280;18912;43.270;27.942;2023-04-28T11:39:32;98302.59;;;23.40;26.45
32456;BME280;18912;43.270;27.942;2023-04-28T11:42:01;98308.63;;;23.80;26.87
32456;BME280;18912;43.270;27.942;2023-04-28T11:44:27;98291.91;;;24.00;26.52
32456;BME280;18912;43.270;27.942;2023-04-28T11:46:54;98293.03;;;24.04;24.74
32456;BME280;18912;43.270;27.942;2023-04-28T11:49:23;98300.06;;;23.43;25.70
32456;BME280;18912;43.270;27.942;2023-04-28T11:51:49;98296.03;;;23.69;24.27
32456;BME280;18912;43.270;27.942;2023-04-28T11:54:18;98297.41;;;24.11;25.11
32456;BME280;18912;43.270;27.942;2023-04-28T11:56:44;98301.91;;;22.99;25.76
32456;BME280;18912;43.270;27.942;2023-04-28T11:59:10;98284.47;;;21.64;27.28
32456;BME280;18912;43.270;27.942;2023-04-28T12:04:14;98278.91;;;22.65;25.71
32456;BME280;18912;43.270;27.942;2023-04-28T12:09:24;98288.09;;;22.20;26.20
32456;BME280;18912;43.270;27.942;2023-04-28T12:11:56;98282.84;;;22.23;25.28
32456;BME280;18912;43.270;27.942;2023-04-28T12:14:22;98286.50;;;22.93;26.35
32456;BME280;18912;43.270;27.942;2023-04-28T12:16:48;98280.25;;;22.72;26.95
32456;BME280;18912;43.270;27.942;2023-04-28T12:19:15;98268.19;;;22.48;26.51
32456;BME280;18912;43.270;27.942;2023-04-28T12:21:40;98272.31;;;22.61;26.08
32456;BME280;18912;43.270;27.942;2023-04-28T12:24:18;98277.28;;;23.23;25.68
32456;BME280;18912;43.270;27.942;2023-04-28T12:26:44;98268.59;;;23.49;27.25
32456;BME280;18912;43.270;27.942;2023-04-28T12:29:43;98255.28;;;23.90;26.19
32456;BME280;18912;43.270;27.942;2023-04-28T12:32:03;98260.88;;;23.46;24.91
32456;BME280;18912;43.270;27.942;2023-04-28T12:34:28;98275.06;;;23.19;25.93
32456;BME280;18912;43.270;27.942;2023-04-28T12:36:55;98272.53;;;23.33;25.73
32456;BME280;18912;43.270;27.942;2023-04-28T12:39:20;98263.81;;;22.37;26.72
32456;BME280;18912;43.270;27.942;2023-04-28T12:41:47;98264.63;;;22.33;26.91
32456;BME280;18912;43.270;27.942;2023-04-28T12:44:12;98268.72;;;22.65;25.72
32456;BME280;18912;43.270;27.942;2023-04-28T12:46:39;98265.16;;;22.60;26.19
32456;BME280;18912;43.270;27.942;2023-04-28T12:49:04;98272.31;;;22.46;25.96
32456;BME280;18912;43.270;27.942;2023-04-28T12:51:30;98270.16;;;21.62;26.85
32456;BME280;18912;43.270;27.942;2023-04-28T12:53:55;98262.41;;;21.24;27.21
32456;BME280;18912;43.270;27.942;2023-04-28T12:56:21;98268.28;;;21.88;26.33
32456;BME280;18912;43.270;27.942;2023-04-28T12:58:47;98257.44;;;22.42;27.09
32456;BME280;18912;43.270;27.942;2023-04-28T13:01:13;98268.00;;;22.14;27.35
32456;BME280;18912;43.270;27.942;2023-04-28T13:03:39;98272.44;;;21.80;26.72
32456;BME280;18912;43.270;27.942;2023-04-28T13:06:05;98263.06;;;21.86;25.92
32456;BME280;18912;43.270;27.942;2023-04-28T13:08:30;98258.63;;;22.05;26.45
32456;BME280;18912;43.270;27.942;2023-04-28T13:10:58;98252.31;;;21.45;26.11
32456;BME280;18912;43.270;27.942;2023-04-28T13:13:23;98260.84;;;21.83;26.00